Time;durP1;ratioP1;P1;durP2;ratioP2;P2;SDS_P1;SDS_P2;PMS_P1;PMS_P2;Temp;Humidity;BMP_temperature;BMP_pressure;BME280_temperature;BME280_humidity;BME280_pressure;Samples;Min_cycle;Max_cycle;Signal;HPM_P1;HPM_P2
2022/04/06 00:01:45;;;;;;;;;;;8.70;99.90;;;;;;5176343;27;19923;-69
2022/04/06 00:04:10;;;;;;;;;;;8.10;99.90;;;;;;5176289;27;19975;-68
2022/04/06 00:06:36;;;;;;;;;;;8.10;99.90;;;;;;5176133;27;19927;-70
2022/04/06 00:09:02;;;;;;;;;;;8.10;99.90;;;;;;5176200;27;19974;-70
2022/04/06 00:11:27;;;;;;;;;;;8.10;99.90;;;;;;5157860;27;20021;-68
2022/04/06 00:13:53;;;;;;;;;;;8.10;99.90;;;;;;5157764;27;20018;-69
2022/04/06 00:16:19;;;;;;;;;;;8.50;99.90;;;;;;5157706;27;19965;-69
2022/04/06 00:18:44;;;;;;;;;;;8.10;99.90;;;;;;5176219;27;19942;-69
2022/04/06 00:21:11;;;;;;;;;;;8.20;99.90;;;;;;5157722;27;19922;-69
2022/04/06 00:23:36;;;;;;;;;;;8.10;99.90;;;;;;5175996;27;19923;-70
2022/04/06 00:26:02;;;;;;;;;;;8.20;99.90;;;;;;5176034;27;20434;-70
2022/04/06 00:28:27;;;;;;;;;;;8.00;99.90;;;;;;5175958;27;19967;-70
2022/04/06 00:30:53;;;;;;;;;;;8.20;99.90;;;;;;5140438;27;19929;-68
2022/04/06 00:33:19;;;;;;;;;;;8.20;99.90;;;;;;5176321;27;19966;-68
2022/04/06 00:35:44;;;;;;;;;;;8.20;99.90;;;;;;5157732;27;19922;-69
2022/04/06 00:38:10;;;;;;;;;;;8.20;99.90;;;;;;5157772;27;19937;-70
2022/04/06 00:40:36;;;;;;;;;;;8.20;99.90;;;;;;5175943;27;19930;-69
2022/04/06 00:43:09;;;;;;;;;;;8.20;99.90;;;;;;5175662;27;19927;-69
2022/04/06 00:45:34;;;;;;;;;;;8.20;99.90;;;;;;5175919;27;19923;-70
2022/04/06 00:48:00;;;;;;;;;;;8.20;99.90;;;;;;5175858;27;19946;-69
2022/04/06 00:50:26;;;;;;;;;;;8.20;99.90;;;;;;5175885;27;19922;-69
2022/04/06 00:52:56;;;;;;;;;;;8.20;99.90;;;;;;5175816;27;19944;-70
2022/04/06 00:55:25;;;;;;;;;;;8.20;99.90;;;;;;5178455;27;19922;-68
2022/04/06 00:57:50;;;;;;;;;;;8.20;99.90;;;;;;5161255;27;19930;-69
2022/04/06 01:00:16;;;;;;;;;;;8.30;99.90;;;;;;5161174;27;19923;-68
2022/04/06 01:02:42;;;;;;;;;;;8.20;99.90;;;;;;5179803;27;19922;-69
2022/04/06 01:05:08;;;;;;;;;;;8.20;99.90;;;;;;5179700;27;20330;-68
2022/04/06 01:07:34;;;;;;;;;;;8.20;99.90;;;;;;5161259;27;19927;-68
2022/04/06 01:10:00;;;;;;;;;;;8.20;99.90;;;;;;5179459;27;19929;-68
2022/04/06 01:12:26;;;;;;;;;;;9.00;99.90;;;;;;5161042;27;19922;-69
2022/04/06 01:14:52;;;;;;;;;;;8.20;99.90;;;;;;5160768;27;19922;-69
2022/04/06 01:17:18;;;;;;;;;;;8.40;99.90;;;;;;5179283;27;19987;-70
2022/04/06 01:19:44;;;;;;;;;;;8.30;99.90;;;;;;5179376;27;20391;-70
2022/04/06 01:22:11;;;;;;;;;;;7.50;99.90;;;;;;5179094;27;19923;-69
2022/04/06 01:24:37;;;;;;;;;;;8.40;99.90;;;;;;5160567;27;20405;-69
2022/04/06 01:27:03;;;;;;;;;;;8.90;99.90;;;;;;5179133;27;19922;-70
2022/04/06 01:29:29;;;;;;;;;;;8.30;99.90;;;;;;5179012;27;20382;-69
2022/04/06 01:31:55;;;;;;;;;;;8.30;99.90;;;;;;5179093;27;19923;-70
2022/04/06 01:34:20;;;;;;;;;;;8.30;99.90;;;;;;5160555;27;20346;-69
2022/04/06 01:36:46;;;;;;;;;;;8.30;99.90;;;;;;5179039;27;19944;-68
2022/04/06 01:39:11;;;;;;;;;;;8.40;99.90;;;;;;5160671;27;19923;-69
2022/04/06 01:41:40;;;;;;;;;;;8.40;99.90;;;;;;5178833;27;19930;-69
2022/04/06 01:44:06;;;;;;;;;;;8.40;99.90;;;;;;5178688;27;20018;-70
2022/04/06 01:46:32;;;;;;;;;;;8.60;99.90;;;;;;5160323;27;20440;-69
2022/04/06 01:54:27;;;;;;;;;;;8.50;99.90;;;;;;5172325;27;20374;-69
2022/04/06 01:56:52;;;;;;;;;;;8.50;99.90;;;;;;5178509;27;19922;-70
2022/04/06 01:59:18;;;;;;;;;;;8.70;99.90;;;;;;5178725;27;20449;-70
2022/04/06 02:01:46;;;;;;;;;;;8.50;99.90;;;;;;5178359;27;19969;-69
2022/04/06 02:04:15;;;;;;;;;;;8.50;99.90;;;;;;5178384;27;19923;-69
2022/04/06 02:06:41;;;;;;;;;;;8.80;99.90;;;;;;5177810;27;19923;-68
2022/04/06 02:09:06;;;;;;;;;;;8.50;99.90;;;;;;5178236;27;19979;-69
2022/04/06 02:11:32;;;;;;;;;;;8.50;99.90;;;;;;5178501;27;19926;-68
2022/04/06 02:13:58;;;;;;;;;;;9.60;99.90;;;;;;5178446;27;19926;-71
2022/04/06 02:16:23;;;;;;;;;;;8.90;99.90;;;;;;5178084;27;19926;-69
2022/04/06 02:18:51;;;;;;;;;;;8.70;99.90;;;;;;5177252;27;21321;-70
2022/04/06 02:21:16;;;;;;;;;;;8.50;99.90;;;;;;5173549;27;19923;-69
2022/04/06 02:23:42;;;;;;;;;;;8.50;99.90;;;;;;5155694;27;20353;-69
2022/04/06 02:26:07;;;;;;;;;;;8.50;99.90;;;;;;5177417;27;19930;-68
2022/04/06 02:28:33;;;;;;;;;;;8.50;99.90;;;;;;5178381;27;19950;-69
2022/04/06 02:30:58;;;;;;;;;;;8.50;99.90;;;;;;5159698;27;19927;-68
2022/04/06 02:33:24;;;;;;;;;;;8.50;99.90;;;;;;5177960;27;20017;-69
2022/04/06 02:35:49;;;;;;;;;;;8.50;99.90;;;;;;5177830;27;19923;-70
2022/04/06 02:38:15;;;;;;;;;;;8.20;99.90;;;;;;5159436;27;19922;-69
2022/04/06 02:40:40;;;;;;;;;;;8.60;99.90;;;;;;5177718;27;19930;-69
2022/04/06 02:43:06;;;;;;;;;;;8.90;99.90;;;;;;5177466;27;19933;-69
2022/04/06 02:45:31;;;;;;;;;;;9.00;99.90;;;;;;5159372;27;19923;-68
2022/04/06 02:47:57;;;;;;;;;;;8.60;99.90;;;;;;5177642;27;19988;-68
2022/04/06 02:50:22;;;;;;;;;;;8.60;99.90;;;;;;5177617;27;20410;-69
2022/04/06 02:52:48;;;;;;;;;;;8.60;99.90;;;;;;5177422;27;20436;-69
2022/04/06 02:55:14;;;;;;;;;;;8.70;99.90;;;;;;5177362;27;20377;-69
2022/04/06 02:57:41;;;;;;;;;;;9.00;99.90;;;;;;5158231;27;19922;-69
2022/04/06 03:00:07;;;;;;;;;;;8.90;99.90;;;;;;5177322;27;20420;-68
2022/04/06 03:02:33;;;;;;;;;;;8.70;99.90;;;;;;5177372;27;20420;-70
2022/04/06 03:04:58;;;;;;;;;;;9.50;99.90;;;;;;5177327;27;19926;-70
2022/04/06 03:07:24;;;;;;;;;;;8.70;99.90;;;;;;5177254;27;19967;-71
2022/04/06 03:09:49;;;;;;;;;;;8.70;99.90;;;;;;5177048;27;19923;-71
2022/04/06 03:12:15;;;;;;;;;;;8.80;99.90;;;;;;5177019;27;19970;-70
2022/04/06 03:14:41;;;;;;;;;;;8.70;99.90;;;;;;5158783;27;19923;-69
2022/04/06 03:17:06;;;;;;;;;;;9.80;99.90;;;;;;5176021;27;19927;-67
2022/04/06 03:19:32;;;;;;;;;;;8.70;99.90;;;;;;5176857;27;20013;-68
2022/04/06 03:21:58;;;;;;;;;;;8.70;99.90;;;;;;5176996;27;20013;-69
2022/04/06 03:24:23;;;;;;;;;;;9.00;99.90;;;;;;5158059;27;19974;-69
2022/04/06 03:26:49;;;;;;;;;;;8.70;99.90;;;;;;5176764;27;20013;-69
2022/04/06 03:29:14;;;;;;;;;;;8.70;99.90;;;;;;5176720;27;19974;-71
2022/04/06 03:31:40;;;;;;;;;;;8.70;99.90;;;;;;5176869;27;19923;-70
2022/04/06 03:34:05;;;;;;;;;;;8.70;99.90;;;;;;5158366;27;19927;-69
2022/04/06 03:36:31;;;;;;;;;;;9.20;99.90;;;;;;5176761;27;19929;-70
2022/04/06 03:38:56;;;;;;;;;;;8.70;99.90;;;;;;5158257;27;19922;-70
2022/04/06 03:41:22;;;;;;;;;;;8.70;99.90;;;;;;5158325;27;20342;-70
2022/04/06 03:43:47;;;;;;;;;;;8.70;99.90;;;;;;5176377;27;19923;-70
2022/04/06 03:46:14;;;;;;;;;;;8.70;99.90;;;;;;5176599;27;19927;-69
2022/04/06 03:48:40;;;;;;;;;;;8.70;99.90;;;;;;5176628;27;19951;-70
2022/04/06 03:51:05;;;;;;;;;;;8.60;99.90;;;;;;5176452;27;19935;-69
2022/04/06 03:53:31;;;;;;;;;;;8.60;99.90;;;;;;5176447;27;19923;-69
2022/04/06 03:55:57;;;;;;;;;;;8.60;99.90;;;;;;5176345;27;19929;-68
2022/04/06 03:58:22;;;;;;;;;;;8.60;99.90;;;;;;5176308;27;19923;-68
2022/04/06 04:00:48;;;;;;;;;;;8.60;99.90;;;;;;5176364;27;19927;-69
2022/04/06 04:03:13;;;;;;;;;;;8.50;99.90;;;;;;5176355;27;20373;-70
2022/04/06 04:05:39;;;;;;;;;;;8.50;99.90;;;;;;5176353;27;19923;-68
2022/04/06 04:08:04;;;;;;;;;;;8.50;99.90;;;;;;5176233;27;19923;-69
2022/04/06 04:10:30;;;;;;;;;;;8.50;99.90;;;;;;5176290;27;19967;-67
2022/04/06 04:12:56;;;;;;;;;;;8.50;99.90;;;;;;5176114;27;19923;-70
2022/04/06 04:15:21;;;;;;;;;;;8.50;99.90;;;;;;5175937;27;20009;-70
2022/04/06 04:17:47;;;;;;;;;;;8.50;99.90;;;;;;5176096;27;19998;-69
2022/04/06 04:20:13;;;;;;;;;;;8.50;99.90;;;;;;5176176;27;19933;-70
2022/04/06 04:22:38;;;;;;;;;;;8.50;99.90;;;;;;5176106;27;20014;-69
2022/04/06 04:25:05;;;;;;;;;;;8.70;99.90;;;;;;5176062;27;19923;-68
2022/04/06 04:27:31;;;;;;;;;;;8.50;99.90;;;;;;5176187;27;20037;-69
2022/04/06 04:29:57;;;;;;;;;;;8.60;99.90;;;;;;5161568;27;20398;-70
2022/04/06 04:32:22;;;;;;;;;;;8.50;99.90;;;;;;5180300;27;20319;-71
2022/04/06 04:34:48;;;;;;;;;;;8.50;99.90;;;;;;5180371;27;19930;-68
2022/04/06 04:37:14;;;;;;;;;;;8.50;99.90;;;;;;5180277;27;19930;-69
2022/04/06 04:39:40;;;;;;;;;;;8.50;99.90;;;;;;5180187;27;20077;-71
2022/04/06 04:42:06;;;;;;;;;;;8.50;99.90;;;;;;5161720;27;19927;-69
2022/04/06 04:44:31;;;;;;;;;;;8.50;99.90;;;;;;5179850;27;19923;-68
2022/04/06 04:46:57;;;;;;;;;;;8.90;99.90;;;;;;5161412;27;20289;-70
2022/04/06 04:49:23;;;;;;;;;;;8.50;99.90;;;;;;5180112;27;19929;-71
2022/04/06 04:51:48;;;;;;;;;;;8.90;99.90;;;;;;5152603;27;20013;-70
2022/04/06 04:54:14;;;;;;;;;;;8.50;99.90;;;;;;5179869;27;20026;-69
2022/04/06 04:56:41;;;;;;;;;;;8.50;99.90;;;;;;5179889;27;19927;-71
2022/04/06 04:59:07;;;;;;;;;;;8.60;99.90;;;;;;5179653;27;20017;-68
2022/04/06 05:01:33;;;;;;;;;;;8.50;99.90;;;;;;5179541;27;19962;-70
2022/04/06 05:03:58;;;;;;;;;;;9.40;99.90;;;;;;5161318;27;19923;-69
2022/04/06 05:06:24;;;;;;;;;;;9.40;99.90;;;;;;5179751;27;19922;-71
2022/04/06 05:08:49;;;;;;;;;;;8.50;99.90;;;;;;5179571;27;19923;-68
2022/04/06 05:11:15;;;;;;;;;;;8.60;99.90;;;;;;5179569;27;20289;-69
2022/04/06 05:13:41;;;;;;;;;;;8.60;99.90;;;;;;5179458;27;19984;-70
2022/04/06 05:16:07;;;;;;;;;;;8.60;99.90;;;;;;5160836;27;20020;-70
2022/04/06 05:18:32;;;;;;;;;;;8.60;99.90;;;;;;5179163;27;19922;-67
2022/04/06 05:20:58;;;;;;;;;;;8.60;99.90;;;;;;5158698;27;20383;-69
2022/04/06 05:23:24;;;;;;;;;;;8.50;99.90;;;;;;5172602;27;19927;-70
2022/04/06 05:25:49;;;;;;;;;;;8.80;99.90;;;;;;5160805;27;19929;-69
2022/04/06 05:28:15;;;;;;;;;;;8.50;99.90;;;;;;5179325;27;20408;-70
2022/04/06 05:30:41;;;;;;;;;;;8.50;99.90;;;;;;5179032;27;19968;-70
2022/04/06 05:33:07;;;;;;;;;;;8.50;99.90;;;;;;5178934;27;19931;-69
2022/04/06 05:35:33;;;;;;;;;;;8.50;99.90;;;;;;5179157;27;19926;-70
2022/04/06 05:37:59;;;;;;;;;;;8.40;99.90;;;;;;5179090;27;19948;-68
2022/04/06 05:40:24;;;;;;;;;;;8.50;99.90;;;;;;5159700;27;20365;-69
2022/04/06 05:42:50;;;;;;;;;;;8.60;99.90;;;;;;5178856;27;19929;-69
2022/04/06 05:45:16;;;;;;;;;;;9.00;99.90;;;;;;5160178;27;19927;-69
2022/04/06 05:47:42;;;;;;;;;;;8.40;99.90;;;;;;5178617;27;19923;-70
2022/04/06 05:50:08;;;;;;;;;;;8.40;99.90;;;;;;5160557;27;19930;-69
2022/04/06 05:52:34;;;;;;;;;;;8.40;99.90;;;;;;5178769;27;19930;-69
2022/04/06 05:55:00;;;;;;;;;;;8.40;99.90;;;;;;5160420;27;20014;-69
2022/04/06 05:57:25;;;;;;;;;;;8.40;99.90;;;;;;5160025;27;20292;-69
2022/04/06 05:59:51;;;;;;;;;;;8.40;99.90;;;;;;5160247;27;19922;-70
2022/04/06 06:02:18;;;;;;;;;;;8.40;99.90;;;;;;5178248;27;19929;-68
2022/04/06 06:04:44;;;;;;;;;;;8.40;99.90;;;;;;5178548;27;19922;-70
2022/04/06 06:07:11;;;;;;;;;;;8.40;99.90;;;;;;5178552;27;19923;-69
2022/04/06 06:09:36;;;;;;;;;;;8.50;99.90;;;;;;5178428;27;20017;-69
2022/04/06 06:12:03;;;;;;;;;;;9.00;99.90;;;;;;5178338;27;19980;-69
2022/04/06 06:14:28;;;;;;;;;;;8.50;99.90;;;;;;5178235;27;20384;-69
2022/04/06 06:16:54;;;;;;;;;;;8.50;99.90;;;;;;5178213;27;20021;-68
2022/04/06 06:19:19;;;;;;;;;;;8.50;99.90;;;;;;5177895;27;20377;-69
2022/04/06 06:21:45;;;;;;;;;;;8.50;99.90;;;;;;5169510;27;20017;-69
2022/04/06 06:24:11;;;;;;;;;;;8.50;99.90;;;;;;5178203;27;19985;-69
2022/04/06 06:26:37;;;;;;;;;;;8.50;99.90;;;;;;5176862;27;19960;-69
2022/04/06 06:29:03;;;;;;;;;;;8.50;99.90;;;;;;5177964;27;19922;-69
2022/04/06 06:31:29;;;;;;;;;;;9.80;99.90;;;;;;5177763;27;19923;-68
2022/04/06 06:33:55;;;;;;;;;;;8.60;99.90;;;;;;5177273;27;19923;-70
2022/04/06 06:36:21;;;;;;;;;;;8.50;99.90;;;;;;5177986;27;19930;-69
2022/04/06 06:38:46;;;;;;;;;;;8.50;99.90;;;;;;5159526;27;20297;-69
2022/04/06 06:41:12;;;;;;;;;;;8.50;99.90;;;;;;5177735;27;20293;-70
2022/04/06 06:43:38;;;;;;;;;;;8.60;99.90;;;;;;5158992;27;19923;-69
2022/04/06 06:46:03;;;;;;;;;;;8.60;99.90;;;;;;5177483;27;19926;-70
2022/04/06 06:48:29;;;;;;;;;;;8.60;99.90;;;;;;5177488;27;19922;-69
2022/04/06 06:50:54;;;;;;;;;;;8.60;99.90;;;;;;5177471;27;20369;-71
2022/04/06 06:53:20;;;;;;;;;;;8.50;99.90;;;;;;5159332;27;20381;-69
2022/04/06 06:55:45;;;;;;;;;;;8.60;99.90;;;;;;5177476;27;20017;-69
2022/04/06 06:58:11;;;;;;;;;;;9.50;99.90;;;;;;5177288;27;19923;-71
2022/04/06 07:00:55;;;;;;;;;;;8.40;99.90;;;;;;5158941;27;19923;-70
2022/04/06 07:03:20;;;;;;;;;;;8.40;99.90;;;;;;5158438;27;19929;-69
2022/04/06 07:05:47;;;;;;;;;;;9.40;99.90;;;;;;5177338;27;20338;-68
2022/04/06 07:08:13;;;;;;;;;;;8.40;99.90;;;;;;5177179;27;20387;-70
2022/04/06 07:10:43;;;;;;;;;;;8.40;99.90;;;;;;5177200;27;19972;-69
2022/04/06 07:13:11;;;;;;;;;;;8.80;99.90;;;;;;5158137;27;19971;-69
2022/04/06 07:15:37;;;;;;;;;;;8.30;99.90;;;;;;5174744;27;19923;-71
2022/04/06 07:18:03;;;;;;;;;;;8.30;99.90;;;;;;5172633;27;19937;-68
2022/04/06 07:20:31;;;;;;;;;;;8.20;99.90;;;;;;5168428;27;19931;-67
2022/04/06 07:22:57;;;;;;;;;;;8.20;99.90;;;;;;5157769;27;20285;-69
2022/04/06 07:25:23;;;;;;;;;;;8.30;99.90;;;;;;5156110;27;20358;-68
2022/04/06 07:27:49;;;;;;;;;;;8.30;99.90;;;;;;5155878;27;19924;-68
2022/04/06 07:30:15;;;;;;;;;;;9.20;99.90;;;;;;5155841;27;19923;-69
2022/04/06 07:32:40;;;;;;;;;;;8.30;99.90;;;;;;5140529;27;20424;-69
2022/04/06 07:35:07;;;;;;;;;;;8.30;99.90;;;;;;5176839;27;20423;-69
2022/04/06 07:37:43;;;;;;;;;;;8.30;99.90;;;;;;5176741;27;19952;-70
2022/04/06 07:40:09;;;;;;;;;;;8.30;99.90;;;;;;5176687;27;19965;-69
2022/04/06 07:42:35;;;;;;;;;;;8.30;99.90;;;;;;5176624;27;19922;-68
2022/04/06 07:45:20;;;;;;;;;;;8.80;99.90;;;;;;5176492;27;19922;-70
2022/04/06 07:47:46;;;;;;;;;;;8.40;99.90;;;;;;5176557;27;19929;-70
2022/04/06 07:50:13;;;;;;;;;;;8.30;99.90;;;;;;5157987;27;19965;-70
2022/04/06 07:52:39;;;;;;;;;;;8.60;99.90;;;;;;5176407;27;20308;-69
2022/04/06 07:55:06;;;;;;;;;;;8.40;99.90;;;;;;5176373;27;19923;-69
2022/04/06 07:57:32;;;;;;;;;;;8.40;99.90;;;;;;5176191;27;19922;-69
2022/04/06 08:00:00;;;;;;;;;;;7.70;99.90;;;;;;5176166;27;20296;-69
2022/04/06 08:02:26;;;;;;;;;;;8.40;99.90;;;;;;5157951;27;19927;-69
2022/04/06 08:04:51;;;;;;;;;;;8.50;99.90;;;;;;5176012;27;19929;-69
2022/04/06 08:07:17;;;;;;;;;;;8.50;99.90;;;;;;5157877;27;19930;-68
2022/04/06 08:09:43;;;;;;;;;;;7.40;99.90;;;;;;5157945;27;19923;-69
2022/04/06 08:12:09;;;;;;;;;;;8.50;99.90;;;;;;5157617;27;19930;-68
2022/04/06 08:14:34;;;;;;;;;;;8.50;99.90;;;;;;5176188;27;19926;-69
2022/04/06 08:17:00;;;;;;;;;;;8.50;99.90;;;;;;5176218;27;19973;-69
2022/04/06 08:19:26;;;;;;;;;;;8.50;99.90;;;;;;5154020;27;20302;-70
2022/04/06 08:21:52;;;;;;;;;;;8.40;99.90;;;;;;5136644;27;19970;-70
2022/04/06 08:24:18;;;;;;;;;;;8.40;99.90;;;;;;5155166;27;20421;-68
2022/04/06 08:26:43;;;;;;;;;;;8.40;99.90;;;;;;5155262;27;19982;-67
2022/04/06 08:29:09;;;;;;;;;;;8.40;99.90;;;;;;5155125;27;20373;-69
2022/04/06 08:31:34;;;;;;;;;;;9.10;99.90;;;;;;5154983;27;20434;-69
2022/04/06 08:34:00;;;;;;;;;;;8.40;99.90;;;;;;5154352;27;19923;-69
2022/04/06 08:36:26;;;;;;;;;;;8.40;99.90;;;;;;5155282;27;19923;-70
2022/04/06 08:38:51;;;;;;;;;;;8.40;99.90;;;;;;5154992;27;20435;-69
2022/04/06 08:41:18;;;;;;;;;;;9.50;99.90;;;;;;5155119;27;19923;-70
2022/04/06 08:43:44;;;;;;;;;;;8.50;99.90;;;;;;5153706;27;20407;-70
2022/04/06 08:46:11;;;;;;;;;;;8.50;99.90;;;;;;5153602;27;20400;-70
2022/04/06 08:48:37;;;;;;;;;;;8.50;99.90;;;;;;5155085;27;19930;-69
2022/04/06 08:51:06;;;;;;;;;;;8.50;99.90;;;;;;5155086;27;19926;-71
2022/04/06 08:53:31;;;;;;;;;;;8.60;99.90;;;;;;5154106;27;19931;-69
2022/04/06 08:55:57;;;;;;;;;;;8.70;99.90;;;;;;5153809;27;20267;-68
2022/04/06 08:58:22;;;;;;;;;;;8.60;99.90;;;;;;5152812;27;19929;-71
2022/04/06 09:00:48;;;;;;;;;;;8.60;99.90;;;;;;5135952;27;19923;-69
2022/04/06 09:03:14;;;;;;;;;;;8.50;99.90;;;;;;5132929;28;19924;-70
2022/04/06 09:05:40;;;;;;;;;;;8.90;99.90;;;;;;5134296;28;19923;-68
2022/04/06 09:08:06;;;;;;;;;;;8.80;99.90;;;;;;5134222;28;20340;-69
2022/04/06 09:10:36;;;;;;;;;;;8.60;99.90;;;;;;5133153;28;20374;-68
2022/04/06 09:13:09;;;;;;;;;;;8.60;99.90;;;;;;5134028;28;19924;-70
2022/04/06 09:15:35;;;;;;;;;;;8.60;99.90;;;;;;5133661;27;19931;-70
2022/04/06 09:18:01;;;;;;;;;;;8.60;99.90;;;;;;5143062;27;20375;-69
2022/04/06 09:20:29;;;;;;;;;;;8.60;99.90;;;;;;5158253;27;20056;-71
2022/04/06 09:22:55;;;;;;;;;;;8.60;99.90;;;;;;5157892;27;19924;-70
2022/04/06 09:25:21;;;;;;;;;;;8.70;99.90;;;;;;5158070;27;19923;-68
2022/04/06 09:27:47;;;;;;;;;;;8.70;99.90;;;;;;5157919;27;19923;-70
2022/04/06 09:30:13;;;;;;;;;;;8.70;99.90;;;;;;5157972;27;19951;-69
2022/04/06 09:32:42;;;;;;;;;;;8.70;99.90;;;;;;5157892;27;20013;-71
2022/04/06 09:35:25;;;;;;;;;;;8.70;99.90;;;;;;5139889;27;19960;-69
2022/04/06 09:38:07;;;;;;;;;;;8.80;99.90;;;;;;5139717;27;20026;-70
2022/04/06 09:40:33;;;;;;;;;;;8.80;99.90;;;;;;5157869;27;19974;-70
2022/04/06 09:42:58;;;;;;;;;;;8.80;99.90;;;;;;5157597;27;19962;-70
2022/04/06 09:48:12;;;;;;;;;;;8.90;99.90;;;;;;5139403;27;20014;-69
2022/04/06 09:50:38;;;;;;;;;;;8.90;99.90;;;;;;5157673;27;19977;-69
2022/04/06 09:53:06;;;;;;;;;;;9.00;99.90;;;;;;5139249;27;20382;-69
2022/04/06 09:55:32;;;;;;;;;;;9.10;99.90;;;;;;5139264;27;20362;-69
2022/04/06 09:57:59;;;;;;;;;;;9.10;99.90;;;;;;5139288;27;19922;-71
2022/04/06 10:00:26;;;;;;;;;;;9.20;99.90;;;;;;5139515;27;19923;-69
2022/04/06 10:03:03;;;;;;;;;;;9.20;99.90;;;;;;5157482;27;20039;-70
2022/04/06 10:05:30;;;;;;;;;;;9.30;99.90;;;;;;5157462;27;19923;-69
2022/04/06 10:07:56;;;;;;;;;;;9.30;99.90;;;;;;5157281;27;19924;-69
2022/04/06 10:10:24;;;;;;;;;;;9.30;99.90;;;;;;5157126;27;19972;-69
2022/04/06 10:12:50;;;;;;;;;;;9.40;99.90;;;;;;5157183;27;20270;-69
2022/04/06 10:15:17;;;;;;;;;;;9.40;99.90;;;;;;5157369;27;20274;-70
2022/04/06 10:17:42;;;;;;;;;;;9.50;99.90;;;;;;5156939;27;19931;-69
2022/04/06 10:20:15;;;;;;;;;;;9.50;99.90;;;;;;5156977;27;20036;-71
2022/04/06 10:22:53;;;;;;;;;;;9.50;99.90;;;;;;5157362;27;19970;-71
2022/04/06 10:25:24;;;;;;;;;;;9.50;99.90;;;;;;5157135;27;19931;-70
2022/04/06 10:27:51;;;;;;;;;;;9.60;99.90;;;;;;5156587;27;19948;-70
2022/04/06 10:30:19;;;;;;;;;;;9.60;99.90;;;;;;5156917;27;19923;-70
2022/04/06 10:32:45;;;;;;;;;;;9.60;99.90;;;;;;5156695;27;19923;-71
2022/04/06 10:35:18;;;;;;;;;;;9.60;99.90;;;;;;5156772;27;19923;-70
2022/04/06 10:37:56;;;;;;;;;;;9.60;99.90;;;;;;5156973;27;20437;-69
2022/04/06 10:40:24;;;;;;;;;;;9.70;99.90;;;;;;5160439;27;19923;-71
2022/04/06 10:42:50;;;;;;;;;;;9.60;99.90;;;;;;5173151;27;19975;-70
2022/04/06 10:45:25;;;;;;;;;;;9.60;99.90;;;;;;5157550;27;19926;-70
2022/04/06 10:48:09;;;;;;;;;;;9.60;99.90;;;;;;5156450;27;19927;-70
2022/04/06 10:50:35;;;;;;;;;;;9.60;99.90;;;;;;5138222;27;19923;-70
2022/04/06 10:53:19;;;;;;;;;;;9.60;99.90;;;;;;5156539;27;19930;-68
2022/04/06 10:56:06;;;;;;;;;;;9.60;99.90;;;;;;5122448;27;20018;-71
2022/04/06 10:58:50;;;;;;;;;;;9.60;99.90;;;;;;5156239;27;19923;-70
2022/04/06 11:01:16;;;;;;;;;;;9.60;99.90;;;;;;5138200;27;20412;-69
2022/04/06 11:03:54;;;;;;;;;;;9.60;99.90;;;;;;5138007;27;19923;-70
2022/04/06 11:06:38;;;;;;;;;;;9.60;99.90;;;;;;5155355;27;19923;-70
2022/04/06 11:12:05;;;;;;;;;;;9.60;99.90;;;;;;5140546;27;19927;-71
2022/04/06 11:14:31;;;;;;;;;;;9.60;99.90;;;;;;5172177;27;19987;-69
2022/04/06 11:16:57;;;;;;;;;;;9.60;99.90;;;;;;5155784;27;19923;-70
2022/04/06 11:19:22;;;;;;;;;;;9.60;99.90;;;;;;5172034;27;19927;-70
2022/04/06 11:21:51;;;;;;;;;;;10.30;99.90;;;;;;5155931;27;19927;-70
2022/04/06 11:24:18;;;;;;;;;;;9.60;99.90;;;;;;5172233;27;19923;-70
2022/04/06 11:26:43;;;;;;;;;;;9.50;99.90;;;;;;5155902;27;19927;-71
2022/04/06 11:29:09;;;;;;;;;;;9.50;99.90;;;;;;5155514;27;20019;-70
2022/04/06 11:31:51;;;;;;;;;;;9.40;99.90;;;;;;5172316;27;19923;-69
2022/04/06 11:34:33;;;;;;;;;;;9.40;99.90;;;;;;5155620;27;19969;-69
2022/04/06 11:36:59;;;;;;;;;;;9.40;99.90;;;;;;5155826;27;19923;-67
2022/04/06 11:39:24;;;;;;;;;;;9.40;99.90;;;;;;5136435;27;19948;-69
2022/04/06 11:41:51;;;;;;;;;;;9.90;99.90;;;;;;5155523;27;19923;-68
2022/04/06 11:44:17;;;;;;;;;;;10.00;99.90;;;;;;5155543;27;19923;-70
2022/04/06 11:47:03;;;;;;;;;;;9.60;99.90;;;;;;5155403;27;20443;-70
2022/04/06 11:49:32;;;;;;;;;;;9.40;99.90;;;;;;5137211;27;19927;-70
2022/04/06 11:51:58;;;;;;;;;;;9.50;99.90;;;;;;5155427;27;19923;-70
2022/04/06 11:54:25;;;;;;;;;;;9.60;99.90;;;;;;5153903;27;19961;-71
2022/04/06 11:56:51;;;;;;;;;;;9.50;99.90;;;;;;5119714;27;19930;-69
2022/04/06 11:59:18;;;;;;;;;;;9.50;99.90;;;;;;5155209;27;19927;-69
2022/04/06 12:01:46;;;;;;;;;;;9.60;99.90;;;;;;5155760;27;19938;-70
2022/04/06 12:04:12;;;;;;;;;;;9.60;99.90;;;;;;5171672;27;19927;-69
2022/04/06 12:06:38;;;;;;;;;;;9.70;99.90;;;;;;5155321;27;20337;-71
2022/04/06 12:09:05;;;;;;;;;;;9.60;99.90;;;;;;5155242;27;19927;-69
2022/04/06 12:11:31;;;;;;;;;;;9.70;99.90;;;;;;5155173;27;20010;-69
2022/04/06 12:13:56;;;;;;;;;;;9.80;99.90;;;;;;5155104;27;20449;-71
2022/04/06 12:16:22;;;;;;;;;;;9.90;99.90;;;;;;5155022;27;19924;-70
2022/04/06 12:18:50;;;;;;;;;;;9.90;99.90;;;;;;5154762;27;19931;-69
2022/04/06 12:21:25;;;;;;;;;;;10.10;99.90;;;;;;5155111;27;19923;-68
2022/04/06 12:23:52;;;;;;;;;;;10.10;99.90;;;;;;5155012;27;19923;-69
2022/04/06 12:26:18;;;;;;;;;;;10.70;99.90;;;;;;5155030;27;19975;-69
2022/04/06 12:28:48;;;;;;;;;;;10.40;99.90;;;;;;5154998;27;20359;-71
2022/04/06 12:31:13;;;;;;;;;;;10.40;99.90;;;;;;5155112;27;19944;-69
2022/04/06 12:33:50;;;;;;;;;;;10.50;99.90;;;;;;5154975;27;19923;-69
2022/04/06 12:36:25;;;;;;;;;;;10.60;99.90;;;;;;5155157;27;19924;-69
2022/04/06 12:39:06;;;;;;;;;;;10.70;99.90;;;;;;5155184;27;19924;-70
2022/04/06 12:41:33;;;;;;;;;;;10.60;99.90;;;;;;5155266;27;19923;-69
2022/04/06 12:44:00;;;;;;;;;;;10.60;99.90;;;;;;5154907;27;20461;-71
2022/04/06 12:46:44;;;;;;;;;;;10.60;99.90;;;;;;5155122;27;19981;-70
2022/04/06 12:49:28;;;;;;;;;;;10.50;99.90;;;;;;5155259;27;19923;-70
2022/04/06 12:52:23;;;;;;;;;;;10.60;99.90;;;;;;5140676;27;20442;-69
2022/04/06 12:54:51;;;;;;;;;;;10.60;99.90;;;;;;5054664;28;19925;-69
2022/04/06 12:57:18;;;;;;;;;;;11.40;99.90;;;;;;5054612;28;19924;-69
2022/04/06 12:59:56;;;;;;;;;;;10.70;99.90;;;;;;5054677;28;19929;-70
2022/04/06 13:02:23;;;;;;;;;;;10.70;99.90;;;;;;5054564;28;19936;-70
2022/04/06 13:04:49;;;;;;;;;;;10.70;99.90;;;;;;5054604;28;19948;-69
2022/04/06 13:07:15;;;;;;;;;;;10.80;99.90;;;;;;5071514;28;19925;-71
2022/04/06 13:09:50;;;;;;;;;;;10.80;99.90;;;;;;5054538;28;19925;-70
2022/04/06 13:12:17;;;;;;;;;;;10.80;99.90;;;;;;5054471;28;19979;-69
2022/04/06 13:14:42;;;;;;;;;;;10.80;99.90;;;;;;5054491;28;20523;-69
2022/04/06 13:17:08;;;;;;;;;;;10.90;99.90;;;;;;5054177;28;20011;-68
2022/04/06 13:19:33;;;;;;;;;;;10.80;99.90;;;;;;5055449;28;20015;-70
2022/04/06 13:21:59;;;;;;;;;;;11.20;99.90;;;;;;5072289;28;20015;-70
2022/04/06 13:24:25;;;;;;;;;;;11.00;99.90;;;;;;5072772;28;19925;-70
2022/04/06 13:26:51;;;;;;;;;;;11.40;99.90;;;;;;5057649;28;19963;-70
2022/04/06 13:29:16;;;;;;;;;;;11.30;99.90;;;;;;5074078;28;19924;-75
2022/04/06 13:31:42;;;;;;;;;;;11.00;99.90;;;;;;5133929;27;19984;-69
2022/04/06 13:34:08;;;;;;;;;;;11.00;99.90;;;;;;5158142;27;19985;-71
2022/04/06 13:36:34;;;;;;;;;;;11.10;99.90;;;;;;5158312;27;19927;-70
2022/04/06 13:38:59;;;;;;;;;;;11.30;99.90;;;;;;5158302;27;19967;-70
2022/04/06 13:41:27;;;;;;;;;;;11.30;99.90;;;;;;5158244;27;19923;-70
2022/04/06 13:43:54;;;;;;;;;;;11.40;99.90;;;;;;5157943;27;19975;-71
2022/04/06 13:46:19;;;;;;;;;;;11.40;99.90;;;;;;5157913;27;19924;-70
2022/04/06 13:48:45;;;;;;;;;;;11.40;99.90;;;;;;5139455;27;19930;-70
2022/04/06 13:51:12;;;;;;;;;;;11.50;99.90;;;;;;5158223;27;20396;-71
2022/04/06 13:53:38;;;;;;;;;;;11.40;99.90;;;;;;5157941;27;19967;-70
2022/04/06 13:56:04;;;;;;;;;;;12.00;99.90;;;;;;5157666;27;19931;-69
2022/04/06 13:58:30;;;;;;;;;;;11.20;99.90;;;;;;5139247;27;19923;-70
2022/04/06 14:00:57;;;;;;;;;;;11.10;99.90;;;;;;5156902;27;19985;-70
2022/04/06 14:03:24;;;;;;;;;;;11.10;99.90;;;;;;5156795;27;19930;-70
2022/04/06 14:05:55;;;;;;;;;;;11.00;99.90;;;;;;5157585;27;19927;-69
2022/04/06 14:08:26;;;;;;;;;;;11.10;99.90;;;;;;5157535;27;20297;-70
2022/04/06 14:10:51;;;;;;;;;;;10.70;99.90;;;;;;5139075;27;19927;-71
2022/04/06 14:13:18;;;;;;;;;;;10.70;99.90;;;;;;5157508;27;19923;-69
2022/04/06 14:15:43;;;;;;;;;;;10.60;99.90;;;;;;5155989;27;19923;-69
2022/04/06 14:18:09;;;;;;;;;;;10.50;99.90;;;;;;5156880;27;19946;-71
2022/04/06 14:20:34;;;;;;;;;;;10.40;99.90;;;;;;5157336;27;19972;-70
2022/04/06 14:23:00;;;;;;;;;;;10.30;99.90;;;;;;5156946;27;20364;-69
2022/04/06 14:25:26;;;;;;;;;;;10.30;99.90;;;;;;5157140;27;19923;-71
2022/04/06 14:27:51;;;;;;;;;;;10.20;99.90;;;;;;5156999;27;20377;-69
2022/04/06 14:30:17;;;;;;;;;;;10.20;99.90;;;;;;5157087;27;19938;-69
2022/04/06 14:32:43;;;;;;;;;;;10.10;99.90;;;;;;5138279;27;20335;-69
2022/04/06 14:35:10;;;;;;;;;;;10.00;99.90;;;;;;5157141;27;19923;-69
2022/04/06 14:37:36;;;;;;;;;;;10.20;99.90;;;;;;5157115;27;19923;-71
2022/04/06 14:40:03;;;;;;;;;;;9.90;99.90;;;;;;5156810;27;19923;-70